Time;durP1;ratioP1;P1;durP2;ratioP2;P2;SDS_P1;SDS_P2;PMS_P1;PMS_P2;Temp;Humidity;BMP_temperature;BMP_pressure;BME280_temperature;BME280_humidity;BME280_pressure;Samples;Min_cycle;Max_cycle;Signal;HPM_P1;HPM_P2
2022/03/06 00:02:20;;;;;;;;;;;22.10;41.20;;;;;;5075253;28;20023;-46
2022/03/06 00:04:48;;;;;;;;;;;22.10;41.20;;;;;;5076008;28;19935;-44
2022/03/06 00:07:14;;;;;;;;;;;22.10;41.20;;;;;;5075747;28;20372;-43
2022/03/06 00:09:41;;;;;;;;;;;22.10;41.20;;;;;;5076198;28;19967;-42
2022/03/06 00:12:08;;;;;;;;;;;22.10;41.30;;;;;;5075793;28;19925;-43
2022/03/06 00:14:35;;;;;;;;;;;22.10;41.30;;;;;;5075064;28;19978;-43
2022/03/06 00:17:02;;;;;;;;;;;22.10;41.20;;;;;;5074985;28;19924;-44
2022/03/06 00:19:29;;;;;;;;;;;22.10;41.20;;;;;;5076016;28;20272;-50
2022/03/06 00:21:56;;;;;;;;;;;22.10;41.30;;;;;;5075519;28;19932;-50
2022/03/06 00:24:23;;;;;;;;;;;22.10;41.30;;;;;;5075994;28;19931;-49
2022/03/06 00:26:50;;;;;;;;;;;22.10;41.30;;;;;;5075843;28;19935;-52
2022/03/06 00:29:17;;;;;;;;;;;22.10;41.30;;;;;;5074969;28;19924;-47
2022/03/06 00:31:44;;;;;;;;;;;22.10;41.30;;;;;;5075095;28;19999;-43
2022/03/06 00:34:11;;;;;;;;;;;22.10;41.30;;;;;;5075431;28;19925;-44
2022/03/06 00:36:38;;;;;;;;;;;22.10;41.30;;;;;;5076071;28;19925;-44
2022/03/06 00:39:05;;;;;;;;;;;22.10;41.30;;;;;;5057635;28;19925;-42
2022/03/06 00:41:32;;;;;;;;;;;22.10;41.30;;;;;;5075647;28;20237;-44
2022/03/06 00:43:59;;;;;;;;;;;22.10;41.30;;;;;;5074871;28;19924;-48
2022/03/06 00:46:26;;;;;;;;;;;22.10;41.30;;;;;;5075722;28;19981;-46
2022/03/06 00:48:53;;;;;;;;;;;22.10;41.30;;;;;;5074771;28;19924;-44
2022/03/06 00:51:20;;;;;;;;;;;22.10;41.30;;;;;;5075269;28;19924;-45
2022/03/06 00:53:47;;;;;;;;;;;22.10;41.30;;;;;;5075337;28;19976;-48
2022/03/06 00:56:14;;;;;;;;;;;22.10;41.30;;;;;;5074163;28;19967;-51
2022/03/06 00:58:41;;;;;;;;;;;22.10;41.30;;;;;;5074325;28;19932;-49
2022/03/06 01:01:08;;;;;;;;;;;22.00;41.20;;;;;;5075326;28;19956;-44
2022/03/06 01:03:35;;;;;;;;;;;22.00;41.30;;;;;;5056424;28;20356;-45
2022/03/06 01:06:02;;;;;;;;;;;22.00;41.20;;;;;;5074969;28;20265;-47
2022/03/06 01:08:29;;;;;;;;;;;22.00;41.20;;;;;;5074799;28;19928;-43
2022/03/06 01:10:56;;;;;;;;;;;22.00;41.20;;;;;;5075098;28;19929;-44
2022/03/06 01:13:23;;;;;;;;;;;22.00;41.30;;;;;;5074320;28;20351;-44
2022/03/06 01:15:50;;;;;;;;;;;22.00;41.20;;;;;;5074580;28;19932;-45
2022/03/06 01:18:17;;;;;;;;;;;22.00;41.30;;;;;;5074283;28;20509;-48
2022/03/06 01:20:44;;;;;;;;;;;22.00;41.30;;;;;;5074482;28;19978;-47
2022/03/06 01:23:11;;;;;;;;;;;22.00;41.30;;;;;;5074784;28;20277;-44
2022/03/06 01:25:37;;;;;;;;;;;22.00;41.30;;;;;;5074533;28;20006;-46
2022/03/06 01:28:04;;;;;;;;;;;22.00;41.30;;;;;;5074824;28;20336;-45
2022/03/06 01:30:32;;;;;;;;;;;22.00;41.30;;;;;;5073557;28;19924;-47
2022/03/06 01:33:00;;;;;;;;;;;22.00;41.30;;;;;;5073545;28;19924;-44
2022/03/06 01:35:27;;;;;;;;;;;22.00;41.30;;;;;;5074444;28;19924;-47
2022/03/06 01:37:54;;;;;;;;;;;22.00;41.30;;;;;;5074175;28;19950;-45
2022/03/06 01:40:21;;;;;;;;;;;22.00;41.30;;;;;;5074472;28;20011;-46
2022/03/06 01:42:49;;;;;;;;;;;22.00;41.30;;;;;;5074407;28;19985;-45
2022/03/06 01:45:18;;;;;;;;;;;22.00;41.30;;;;;;5073360;28;20457;-43
2022/03/06 01:47:47;;;;;;;;;;;22.00;41.30;;;;;;5073497;28;19959;-42
2022/03/06 01:50:15;;;;;;;;;;;22.00;41.30;;;;;;5073915;28;19929;-46
2022/03/06 01:52:43;;;;;;;;;;;22.00;41.30;;;;;;5073436;28;19925;-46
2022/03/06 01:55:11;;;;;;;;;;;22.00;41.30;;;;;;5073914;28;20335;-44
2022/03/06 01:57:42;;;;;;;;;;;22.00;41.30;;;;;;5073845;28;19981;-46
2022/03/06 02:00:12;;;;;;;;;;;22.00;41.30;;;;;;5073840;28;19925;-45
2022/03/06 02:02:39;;;;;;;;;;;22.00;41.30;;;;;;5073908;28;19974;-45
2022/03/06 02:05:07;;;;;;;;;;;22.00;41.30;;;;;;5073644;28;19925;-44
2022/03/06 02:07:34;;;;;;;;;;;22.00;41.30;;;;;;5074028;28;19929;-45
2022/03/06 02:10:01;;;;;;;;;;;22.00;41.30;;;;;;5056652;28;20054;-44
2022/03/06 02:12:28;;;;;;;;;;;22.00;41.30;;;;;;5073536;28;19925;-43
2022/03/06 02:14:56;;;;;;;;;;;21.90;41.20;;;;;;5072785;28;19924;-46
2022/03/06 02:17:24;;;;;;;;;;;21.90;41.20;;;;;;5073530;28;20440;-45
2022/03/06 02:19:54;;;;;;;;;;;21.90;41.20;;;;;;5072570;28;20449;-46
2022/03/06 02:22:22;;;;;;;;;;;21.90;41.20;;;;;;5073317;28;20376;-44
2022/03/06 02:24:49;;;;;;;;;;;21.90;41.20;;;;;;5055609;28;19925;-44
2022/03/06 02:27:17;;;;;;;;;;;21.90;41.20;;;;;;5073492;28;20019;-45
2022/03/06 02:29:45;;;;;;;;;;;21.90;41.30;;;;;;5072589;28;20019;-42
2022/03/06 02:32:13;;;;;;;;;;;21.90;41.20;;;;;;5073288;28;19963;-44
2022/03/06 02:34:41;;;;;;;;;;;21.90;41.20;;;;;;5072824;28;19980;-44
2022/03/06 02:37:09;;;;;;;;;;;21.90;41.30;;;;;;5073105;28;20015;-43
2022/03/06 02:39:36;;;;;;;;;;;21.90;41.30;;;;;;5073205;28;19964;-44
2022/03/06 02:42:04;;;;;;;;;;;21.90;41.20;;;;;;5073183;28;20022;-45
2022/03/06 02:44:31;;;;;;;;;;;21.90;41.30;;;;;;5072698;28;19924;-43
2022/03/06 02:46:58;;;;;;;;;;;21.90;41.20;;;;;;5073309;28;20015;-47
2022/03/06 02:49:25;;;;;;;;;;;21.90;41.30;;;;;;5054502;28;19925;-45
2022/03/06 02:51:51;;;;;;;;;;;21.90;41.30;;;;;;5073223;28;20352;-44
2022/03/06 02:54:20;;;;;;;;;;;21.90;41.20;;;;;;5073297;28;19952;-45
2022/03/06 02:56:48;;;;;;;;;;;21.90;41.30;;;;;;5072929;28;20435;-45
2022/03/06 02:59:15;;;;;;;;;;;21.90;41.30;;;;;;5073311;28;19951;-46
2022/03/06 03:01:42;;;;;;;;;;;21.90;41.20;;;;;;5072498;28;19946;-45
2022/03/06 03:04:09;;;;;;;;;;;21.90;41.30;;;;;;5072425;28;20297;-46
2022/03/06 03:06:37;;;;;;;;;;;21.90;41.30;;;;;;5072800;28;19928;-43
2022/03/06 03:09:05;;;;;;;;;;;21.90;41.30;;;;;;5072865;28;20391;-44
2022/03/06 03:11:33;;;;;;;;;;;21.90;41.30;;;;;;5072856;28;20380;-43
2022/03/06 03:14:01;;;;;;;;;;;21.90;41.30;;;;;;5072794;28;20062;-44
2022/03/06 03:16:28;;;;;;;;;;;21.90;41.30;;;;;;5058029;28;20019;-44
2022/03/06 03:18:55;;;;;;;;;;;21.90;41.90;;;;;;5040718;28;20000;-45
2022/03/06 03:21:22;;;;;;;;;;;21.90;41.30;;;;;;5076630;28;20364;-44
2022/03/06 03:23:49;;;;;;;;;;;21.90;41.20;;;;;;5077113;28;20277;-44
2022/03/06 03:26:16;;;;;;;;;;;21.90;41.20;;;;;;5077093;28;19925;-44
2022/03/06 03:28:43;;;;;;;;;;;21.90;41.20;;;;;;5077033;28;19931;-48
2022/03/06 03:31:09;;;;;;;;;;;21.90;41.30;;;;;;5076005;28;20015;-49
2022/03/06 03:33:36;;;;;;;;;;;21.80;41.20;;;;;;5075792;28;19924;-49
2022/03/06 03:36:03;;;;;;;;;;;21.80;41.20;;;;;;5076789;28;19956;-47
2022/03/06 03:38:30;;;;;;;;;;;21.80;41.20;;;;;;5076845;28;19929;-47
2022/03/06 03:41:02;;;;;;;;;;;21.80;41.20;;;;;;5076515;28;19931;-49
2022/03/06 03:43:29;;;;;;;;;;;21.80;41.20;;;;;;5076410;28;19924;-52
2022/03/06 03:45:57;;;;;;;;;;;21.80;41.20;;;;;;5075676;28;19970;-47
2022/03/06 03:48:25;;;;;;;;;;;21.80;41.20;;;;;;5076820;28;19935;-53
2022/03/06 03:50:52;;;;;;;;;;;21.80;41.20;;;;;;5056655;28;19964;-48
2022/03/06 03:53:20;;;;;;;;;;;21.80;41.20;;;;;;5056539;28;20019;-52
2022/03/06 03:55:47;;;;;;;;;;;21.80;41.20;;;;;;5056528;28;19925;-48
2022/03/06 03:58:14;;;;;;;;;;;21.80;41.20;;;;;;5056067;28;19929;-46
2022/03/06 04:00:44;;;;;;;;;;;21.80;41.20;;;;;;5059444;28;19929;-44
2022/03/06 04:03:13;;;;;;;;;;;21.80;41.20;;;;;;5076596;28;20352;-46
2022/03/06 04:05:40;;;;;;;;;;;21.80;41.20;;;;;;5075197;28;19973;-49
2022/03/06 04:08:07;;;;;;;;;;;21.80;41.20;;;;;;5075963;28;19925;-51
2022/03/06 04:10:34;;;;;;;;;;;21.80;41.20;;;;;;5075932;28;19964;-49
2022/03/06 04:13:01;;;;;;;;;;;21.80;41.20;;;;;;5075855;28;19925;-44
2022/03/06 04:15:28;;;;;;;;;;;21.80;41.20;;;;;;5075663;28;20002;-50
2022/03/06 04:17:54;;;;;;;;;;;21.80;41.20;;;;;;5075688;28;19958;-47
2022/03/06 04:20:21;;;;;;;;;;;21.80;41.20;;;;;;5074981;28;19924;-43
2022/03/06 04:22:48;;;;;;;;;;;21.80;41.20;;;;;;5075639;28;20027;-43
2022/03/06 04:25:16;;;;;;;;;;;21.80;41.20;;;;;;5075621;28;19978;-45
2022/03/06 04:27:43;;;;;;;;;;;21.80;41.20;;;;;;5075609;28;20400;-45
2022/03/06 04:30:10;;;;;;;;;;;21.80;41.20;;;;;;5075431;28;19971;-47
2022/03/06 04:32:37;;;;;;;;;;;21.80;41.20;;;;;;5074812;28;19960;-44
2022/03/06 04:35:05;;;;;;;;;;;21.80;41.20;;;;;;5074579;28;19925;-44
2022/03/06 04:37:32;;;;;;;;;;;21.80;41.20;;;;;;5075726;28;19956;-45
2022/03/06 04:39:59;;;;;;;;;;;21.80;41.20;;;;;;5075985;28;19925;-43
2022/03/06 04:42:26;;;;;;;;;;;21.80;41.20;;;;;;5075345;28;19933;-47
2022/03/06 04:44:53;;;;;;;;;;;21.80;41.20;;;;;;5075597;28;19929;-43
2022/03/06 04:47:20;;;;;;;;;;;21.80;41.20;;;;;;5074487;28;19925;-47
2022/03/06 04:49:48;;;;;;;;;;;21.80;41.10;;;;;;5074660;28;19970;-45
2022/03/06 04:52:14;;;;;;;;;;;21.80;41.20;;;;;;5075283;28;20022;-46
2022/03/06 04:54:41;;;;;;;;;;;21.80;41.10;;;;;;5075430;28;19971;-43
2022/03/06 04:57:08;;;;;;;;;;;21.80;41.20;;;;;;5075131;28;20384;-45
2022/03/06 04:59:35;;;;;;;;;;;21.80;41.10;;;;;;5057592;28;19936;-46
2022/03/06 05:02:02;;;;;;;;;;;21.80;41.20;;;;;;5066190;28;19963;-44
2022/03/06 05:04:29;;;;;;;;;;;21.80;41.10;;;;;;5055440;28;19972;-43
2022/03/06 05:06:56;;;;;;;;;;;21.80;41.10;;;;;;5074777;28;19924;-48
2022/03/06 05:09:23;;;;;;;;;;;21.80;41.10;;;;;;5074892;28;20015;-44
2022/03/06 05:11:50;;;;;;;;;;;21.80;41.10;;;;;;5075086;28;20035;-46
2022/03/06 05:14:17;;;;;;;;;;;21.80;41.80;;;;;;5074708;28;20456;-46
2022/03/06 05:16:44;;;;;;;;;;;21.80;41.10;;;;;;5074339;28;19959;-44
2022/03/06 05:19:11;;;;;;;;;;;21.80;41.10;;;;;;5074516;28;19924;-44
2022/03/06 05:21:38;;;;;;;;;;;21.80;41.20;;;;;;5073442;28;19991;-44
2022/03/06 05:24:05;;;;;;;;;;;21.80;41.20;;;;;;5074521;28;19928;-44
2022/03/06 05:26:32;;;;;;;;;;;21.80;41.20;;;;;;5074896;28;20329;-45
2022/03/06 05:28:59;;;;;;;;;;;21.80;41.10;;;;;;5074316;28;19931;-47
2022/03/06 05:31:26;;;;;;;;;;;21.80;41.10;;;;;;5073629;28;19947;-46
2022/03/06 05:33:53;;;;;;;;;;;21.80;41.10;;;;;;5074348;28;19960;-43
2022/03/06 05:36:20;;;;;;;;;;;21.80;41.10;;;;;;5073837;28;19924;-45
2022/03/06 05:38:46;;;;;;;;;;;21.80;41.10;;;;;;5074547;28;20291;-43
2022/03/06 05:41:13;;;;;;;;;;;21.80;41.10;;;;;;5074325;28;20312;-47
2022/03/06 05:43:40;;;;;;;;;;;21.80;41.10;;;;;;5074128;28;19959;-46
2022/03/06 05:46:07;;;;;;;;;;;21.80;41.20;;;;;;5074071;28;19924;-49
2022/03/06 05:48:34;;;;;;;;;;;21.80;41.10;;;;;;5073032;28;19925;-43
2022/03/06 05:51:02;;;;;;;;;;;21.80;41.70;;;;;;5073061;28;19986;-43
2022/03/06 05:53:29;;;;;;;;;;;21.80;41.10;;;;;;5074248;28;19928;-45
2022/03/06 05:55:55;;;;;;;;;;;21.80;41.10;;;;;;5073838;28;19928;-43
2022/03/06 05:58:22;;;;;;;;;;;21.80;41.10;;;;;;5074411;28;19924;-44
2022/03/06 06:00:49;;;;;;;;;;;21.80;41.10;;;;;;5074137;28;19931;-44
2022/03/06 06:03:16;;;;;;;;;;;21.80;41.10;;;;;;5073395;28;20331;-46
2022/03/06 06:05:43;;;;;;;;;;;21.80;41.10;;;;;;5072909;28;20330;-44
2022/03/06 06:08:10;;;;;;;;;;;21.80;41.00;;;;;;5073874;28;19970;-44
2022/03/06 06:10:37;;;;;;;;;;;21.80;41.00;;;;;;5073639;28;19931;-43
2022/03/06 06:13:06;;;;;;;;;;;21.80;41.00;;;;;;5073871;28;20019;-43
2022/03/06 06:15:33;;;;;;;;;;;21.80;41.00;;;;;;5074616;28;19925;-43
2022/03/06 06:18:00;;;;;;;;;;;21.80;41.00;;;;;;5073007;28;19925;-44
2022/03/06 06:20:27;;;;;;;;;;;21.80;41.00;;;;;;5072459;28;20380;-45
2022/03/06 06:22:54;;;;;;;;;;;21.80;40.90;;;;;;5073585;28;19932;-44
2022/03/06 06:25:21;;;;;;;;;;;21.80;40.90;;;;;;5056003;28;19960;-43
2022/03/06 06:27:48;;;;;;;;;;;21.80;40.90;;;;;;5056590;28;19975;-45
2022/03/06 06:30:15;;;;;;;;;;;21.80;40.90;;;;;;5073359;28;19936;-44
2022/03/06 06:32:42;;;;;;;;;;;21.80;40.90;;;;;;5054758;28;19974;-46
2022/03/06 06:35:09;;;;;;;;;;;21.90;40.90;;;;;;5073464;28;20299;-46
2022/03/06 06:37:36;;;;;;;;;;;21.80;40.80;;;;;;5072725;28;20300;-51
2022/03/06 06:40:03;;;;;;;;;;;21.90;40.90;;;;;;5073190;28;19928;-48
2022/03/06 06:42:30;;;;;;;;;;;21.80;40.80;;;;;;5073119;28;19925;-52
2022/03/06 06:44:57;;;;;;;;;;;21.80;40.80;;;;;;5073900;28;20427;-49
2022/03/06 06:47:24;;;;;;;;;;;21.90;40.80;;;;;;5072313;28;19936;-46
2022/03/06 06:49:51;;;;;;;;;;;21.90;40.80;;;;;;5073410;28;20324;-51
2022/03/06 06:52:18;;;;;;;;;;;21.90;40.80;;;;;;5072332;28;19924;-44
2022/03/06 06:54:45;;;;;;;;;;;21.90;40.80;;;;;;5072151;28;19929;-52
2022/03/06 06:57:12;;;;;;;;;;;21.90;40.70;;;;;;5073290;28;19987;-50
2022/03/06 06:59:39;;;;;;;;;;;21.90;40.70;;;;;;5073271;28;19963;-44
2022/03/06 07:02:07;;;;;;;;;;;21.90;40.70;;;;;;5073296;28;19931;-48
2022/03/06 07:04:34;;;;;;;;;;;21.90;40.70;;;;;;5054425;28;19924;-44
2022/03/06 07:07:01;;;;;;;;;;;21.90;40.70;;;;;;5063864;28;20376;-50
2022/03/06 07:09:28;;;;;;;;;;;22.00;40.70;;;;;;5072830;28;19975;-46
2022/03/06 07:11:55;;;;;;;;;;;22.00;40.70;;;;;;5055176;28;20535;-45
2022/03/06 07:14:22;;;;;;;;;;;22.00;40.70;;;;;;5072870;28;19960;-43
2022/03/06 07:16:48;;;;;;;;;;;22.00;40.70;;;;;;5072879;28;20022;-47
2022/03/06 07:19:17;;;;;;;;;;;22.00;40.70;;;;;;5072184;28;20026;-45
2022/03/06 07:21:45;;;;;;;;;;;22.00;40.60;;;;;;5071927;28;19936;-43
2022/03/06 07:24:12;;;;;;;;;;;22.00;40.60;;;;;;5072650;28;19932;-46
2022/03/06 07:26:39;;;;;;;;;;;22.00;40.60;;;;;;5073058;28;20338;-49
2022/03/06 07:29:06;;;;;;;;;;;22.00;40.50;;;;;;5072591;28;19982;-46
2022/03/06 07:31:33;;;;;;;;;;;22.00;40.50;;;;;;5072995;28;20410;-45
2022/03/06 07:34:00;;;;;;;;;;;22.00;40.50;;;;;;5071770;28;19929;-47
2022/03/06 07:36:27;;;;;;;;;;;22.00;40.50;;;;;;5071755;28;19928;-43
2022/03/06 07:38:54;;;;;;;;;;;22.00;40.50;;;;;;5072621;28;20023;-49
2022/03/06 07:41:21;;;;;;;;;;;22.00;40.40;;;;;;5072558;28;19978;-45
2022/03/06 07:43:48;;;;;;;;;;;22.00;40.40;;;;;;5072538;28;19948;-47
2022/03/06 07:46:15;;;;;;;;;;;22.00;40.40;;;;;;5073560;28;19932;-46
2022/03/06 07:48:42;;;;;;;;;;;22.10;40.50;;;;;;5071670;28;19929;-45
2022/03/06 07:51:09;;;;;;;;;;;22.10;40.50;;;;;;5071984;28;19929;-46
2022/03/06 07:53:36;;;;;;;;;;;22.10;40.40;;;;;;5073248;28;20330;-48
2022/03/06 07:56:03;;;;;;;;;;;22.10;40.40;;;;;;5072401;28;19932;-49
2022/03/06 07:58:30;;;;;;;;;;;22.10;40.40;;;;;;5072406;28;19961;-45
2022/03/06 08:00:57;;;;;;;;;;;22.10;40.30;;;;;;5072396;28;19932;-49
2022/03/06 08:03:24;;;;;;;;;;;22.10;40.30;;;;;;5071617;28;19935;-44
2022/03/06 08:05:51;;;;;;;;;;;22.10;40.30;;;;;;5074536;28;19960;-46
2022/03/06 08:08:18;;;;;;;;;;;22.10;40.30;;;;;;5075278;28;19960;-48
2022/03/06 08:10:45;;;;;;;;;;;22.10;40.30;;;;;;5076305;28;20292;-43
2022/03/06 08:13:12;;;;;;;;;;;22.10;40.20;;;;;;5075878;28;19925;-48
2022/03/06 08:15:39;;;;;;;;;;;22.10;40.20;;;;;;5075864;28;19986;-42
2022/03/06 08:18:06;;;;;;;;;;;22.10;40.10;;;;;;5075791;28;20396;-45
2022/03/06 08:20:33;;;;;;;;;;;22.20;40.20;;;;;;5074880;28;19924;-46
2022/03/06 08:23:01;;;;;;;;;;;22.20;40.20;;;;;;5075105;28;19971;-46
2022/03/06 08:25:27;;;;;;;;;;;22.20;40.20;;;;;;5075692;28;19970;-45
2022/03/06 08:27:54;;;;;;;;;;;22.20;40.10;;;;;;5075886;28;19989;-45
2022/03/06 08:30:21;;;;;;;;;;;22.20;40.10;;;;;;5075557;28;20395;-46
2022/03/06 08:32:48;;;;;;;;;;;22.20;40.00;;;;;;5075822;28;19970;-44
2022/03/06 08:35:15;;;;;;;;;;;22.20;40.00;;;;;;5074826;28;19989;-44
2022/03/06 08:37:42;;;;;;;;;;;22.20;40.00;;;;;;5066287;28;19967;-45
2022/03/06 08:40:10;;;;;;;;;;;22.20;40.00;;;;;;5056022;28;20000;-45
2022/03/06 08:42:37;;;;;;;;;;;22.20;39.90;;;;;;5055733;28;19925;-44
2022/03/06 08:45:04;;;;;;;;;;;22.20;39.90;;;;;;5055621;28;19933;-44
2022/03/06 08:47:31;;;;;;;;;;;22.30;40.00;;;;;;5055280;28;20004;-46
2022/03/06 08:49:58;;;;;;;;;;;22.30;39.90;;;;;;5065978;28;19928;-43
2022/03/06 08:52:25;;;;;;;;;;;22.30;39.90;;;;;;5074202;28;19925;-42
2022/03/06 08:54:52;;;;;;;;;;;22.30;39.90;;;;;;5075158;28;19924;-45
2022/03/06 08:57:19;;;;;;;;;;;22.30;39.80;;;;;;5075440;28;19970;-46
2022/03/06 08:59:46;;;;;;;;;;;22.30;39.80;;;;;;5075386;28;19968;-45
2022/03/06 09:02:13;;;;;;;;;;;22.30;39.70;;;;;;5074977;28;19954;-44
2022/03/06 09:04:40;;;;;;;;;;;22.30;39.70;;;;;;5066994;28;19932;-44
2022/03/06 09:07:07;;;;;;;;;;;22.30;39.70;;;;;;5056388;28;19928;-46
2022/03/06 09:09:34;;;;;;;;;;;22.30;39.60;;;;;;5056981;28;19924;-45
2022/03/06 09:12:01;;;;;;;;;;;22.40;39.70;;;;;;5075821;28;19924;-44
2022/03/06 09:14:28;;;;;;;;;;;22.40;39.70;;;;;;5075074;28;20334;-45
2022/03/06 09:16:55;;;;;;;;;;;22.40;39.60;;;;;;5056006;28;19932;-43
2022/03/06 09:19:23;;;;;;;;;;;22.40;39.50;;;;;;5056055;28;19968;-46
2022/03/06 09:21:50;;;;;;;;;;;22.40;39.50;;;;;;5074327;28;19929;-44
2022/03/06 09:24:17;;;;;;;;;;;22.40;39.50;;;;;;5074023;28;19933;-43
2022/03/06 09:26:44;;;;;;;;;;;22.40;39.50;;;;;;5074512;28;20061;-43
2022/03/06 09:29:11;;;;;;;;;;;22.40;40.00;;;;;;5074321;28;19924;-46
2022/03/06 09:31:39;;;;;;;;;;;22.40;39.40;;;;;;5074774;28;19962;-45
2022/03/06 09:34:06;;;;;;;;;;;22.40;39.40;;;;;;5074135;28;19928;-46
2022/03/06 09:36:49;;;;;;;;;;;22.50;39.40;;;;;;5074282;28;19924;-44
2022/03/06 09:39:16;;;;;;;;;;;22.50;39.30;;;;;;5073749;28;19928;-45
2022/03/06 09:41:43;;;;;;;;;;;22.50;39.30;;;;;;5074479;28;19972;-45
2022/03/06 09:44:11;;;;;;;;;;;22.50;39.30;;;;;;5074514;28;20291;-45
2022/03/06 09:46:38;;;;;;;;;;;22.50;39.30;;;;;;5074301;28;20439;-47
2022/03/06 09:49:06;;;;;;;;;;;22.50;39.20;;;;;;5074221;28;19979;-44
2022/03/06 09:51:40;;;;;;;;;;;22.50;39.20;;;;;;5073436;28;19931;-51
2022/03/06 09:54:08;;;;;;;;;;;22.50;39.20;;;;;;5073050;28;19925;-47
2022/03/06 09:56:35;;;;;;;;;;;22.50;39.20;;;;;;5074155;28;19940;-51
2022/03/06 09:59:04;;;;;;;;;;;22.50;39.10;;;;;;5056176;28;19978;-51
2022/03/06 10:01:31;;;;;;;;;;;22.50;39.10;;;;;;5073796;28;20376;-50
2022/03/06 10:04:18;;;;;;;;;;;22.60;39.10;;;;;;5074071;28;19932;-50
2022/03/06 10:07:05;;;;;;;;;;;22.60;39.20;;;;;;5072960;28;19925;-48
2022/03/06 10:09:33;;;;;;;;;;;22.60;39.10;;;;;;5056483;28;19955;-45
2022/03/06 10:12:00;;;;;;;;;;;22.60;39.10;;;;;;5053588;28;19924;-43
2022/03/06 10:14:33;;;;;;;;;;;22.60;39.10;;;;;;5035884;28;19974;-47
2022/03/06 10:17:07;;;;;;;;;;;22.60;39.10;;;;;;5053839;28;19924;-46
2022/03/06 10:19:54;;;;;;;;;;;22.60;39.10;;;;;;5054007;28;20064;-45
2022/03/06 10:22:22;;;;;;;;;;;22.60;39.10;;;;;;5053650;28;19925;-47
2022/03/06 10:24:57;;;;;;;;;;;22.60;39.00;;;;;;5070828;28;20354;-45
2022/03/06 10:27:44;;;;;;;;;;;22.60;39.00;;;;;;5073255;28;19974;-43
2022/03/06 10:30:30;;;;;;;;;;;22.70;39.00;;;;;;5073454;28;19925;-47
2022/03/06 10:33:01;;;;;;;;;;;22.70;39.00;;;;;;5073224;28;19931;-46
2022/03/06 10:35:32;;;;;;;;;;;22.70;39.00;;;;;;5072452;28;19924;-48
2022/03/06 10:38:00;;;;;;;;;;;22.70;38.90;;;;;;5072758;28;19925;-49
2022/03/06 10:40:45;;;;;;;;;;;22.70;39.00;;;;;;5074367;28;20265;-44
2022/03/06 10:43:20;;;;;;;;;;;22.70;38.90;;;;;;5073484;28;19929;-45
2022/03/06 10:45:47;;;;;;;;;;;22.70;38.90;;;;;;5073159;28;19928;-43
2022/03/06 10:48:15;;;;;;;;;;;22.70;38.90;;;;;;5073328;28;19924;-50
2022/03/06 10:50:42;;;;;;;;;;;22.80;38.90;;;;;;5073047;28;19924;-45
2022/03/06 10:53:18;;;;;;;;;;;22.70;38.80;;;;;;5072928;28;19925;-46
2022/03/06 10:55:45;;;;;;;;;;;22.80;38.90;;;;;;5073405;28;20283;-46
2022/03/06 10:58:13;;;;;;;;;;;22.80;38.90;;;;;;5073345;28;19925;-46
2022/03/06 11:00:41;;;;;;;;;;;22.80;38.80;;;;;;5073103;28;19925;-43
2022/03/06 11:03:11;;;;;;;;;;;22.80;38.80;;;;;;5072961;28;19954;-48
2022/03/06 11:05:42;;;;;;;;;;;22.80;38.90;;;;;;5072352;28;19930;-47
2022/03/06 11:08:16;;;;;;;;;;;22.80;38.90;;;;;;5055317;28;20004;-44
2022/03/06 11:10:43;;;;;;;;;;;22.80;38.80;;;;;;5053184;28;20016;-45
2022/03/06 11:13:14;;;;;;;;;;;22.80;38.80;;;;;;5052745;28;19970;-45
2022/03/06 11:15:41;;;;;;;;;;;22.80;38.80;;;;;;5053104;28;19924;-45
2022/03/06 11:18:09;;;;;;;;;;;22.80;38.80;;;;;;5052746;28;19963;-49
2022/03/06 11:20:37;;;;;;;;;;;22.90;38.90;;;;;;5055046;28;20321;-44
2022/03/06 11:23:16;;;;;;;;;;;22.90;38.80;;;;;;5073429;28;19924;-45
2022/03/06 11:25:50;;;;;;;;;;;22.90;38.90;;;;;;5072201;28;19963;-47
2022/03/06 11:28:17;;;;;;;;;;;22.90;38.80;;;;;;5072786;28;20002;-45
2022/03/06 11:30:44;;;;;;;;;;;22.90;38.80;;;;;;5072654;28;19924;-45
2022/03/06 11:33:13;;;;;;;;;;;22.90;38.80;;;;;;5072950;28;20354;-42
2022/03/06 11:35:43;;;;;;;;;;;22.90;38.80;;;;;;5072044;28;19971;-46
2022/03/06 11:38:12;;;;;;;;;;;22.90;38.80;;;;;;5072871;28;19932;-43
2022/03/06 11:40:45;;;;;;;;;;;22.90;38.80;;;;;;5073592;28;19925;-44
2022/03/06 11:43:33;;;;;;;;;;;23.00;38.90;;;;;;5076524;28;19924;-45
2022/03/06 11:46:04;;;;;;;;;;;23.00;38.80;;;;;;5059094;28;20011;-44
2022/03/06 11:48:34;;;;;;;;;;;23.00;38.80;;;;;;5058776;28;20349;-43
2022/03/06 11:51:22;;;;;;;;;;;23.00;38.80;;;;;;5075730;28;20015;-46
2022/03/06 11:53:55;;;;;;;;;;;23.00;38.80;;;;;;5075594;28;20369;-46
2022/03/06 11:56:34;;;;;;;;;;;23.00;38.70;;;;;;5056585;28;20300;-46
2022/03/06 11:59:06;;;;;;;;;;;23.00;38.70;;;;;;5056567;28;20006;-44
2022/03/06 12:01:35;;;;;;;;;;;23.00;38.80;;;;;;5056408;28;19995;-45
2022/03/06 12:04:08;;;;;;;;;;;23.10;38.80;;;;;;5056407;28;19928;-45
2022/03/06 12:06:46;;;;;;;;;;;23.10;38.80;;;;;;5062286;28;19931;-45
2022/03/06 12:09:16;;;;;;;;;;;23.10;38.80;;;;;;5075131;28;19974;-44
2022/03/06 12:11:44;;;;;;;;;;;23.10;38.70;;;;;;5076262;28;19963;-44
2022/03/06 12:14:13;;;;;;;;;;;23.10;38.70;;;;;;5058664;28;20331;-45
2022/03/06 12:17:00;;;;;;;;;;;23.20;38.70;;;;;;5076132;28;19974;-45
2022/03/06 12:19:28;;;;;;;;;;;23.20;38.70;;;;;;5076010;28;20372;-45
2022/03/06 12:22:10;;;;;;;;;;;23.20;38.60;;;;;;5074929;28;20356;-44
2022/03/06 12:24:38;;;;;;;;;;;23.20;38.60;;;;;;5070185;28;20020;-44
2022/03/06 12:27:11;;;;;;;;;;;23.20;38.60;;;;;;5056740;28;20291;-46
2022/03/06 12:29:48;;;;;;;;;;;23.20;38.50;;;;;;5055935;28;20066;-42
2022/03/06 12:32:24;;;;;;;;;;;23.30;38.60;;;;;;5055658;28;19976;-43
2022/03/06 12:35:11;;;;;;;;;;;23.30;38.60;;;;;;5055391;28;19968;-43
2022/03/06 12:37:38;;;;;;;;;;;23.30;38.60;;;;;;5067000;28;19966;-43
2022/03/06 12:40:10;;;;;;;;;;;23.30;38.60;;;;;;5074928;28;19924;-43
2022/03/06 12:42:38;;;;;;;;;;;23.30;38.60;;;;;;5075714;28;19928;-43
2022/03/06 12:45:15;;;;;;;;;;;23.30;38.60;;;;;;5075726;28;19931;-41
2022/03/06 12:47:44;;;;;;;;;;;23.30;38.60;;;;;;5075546;28;19932;-44
2022/03/06 12:50:12;;;;;;;;;;;23.30;38.50;;;;;;5075946;28;19971;-44
2022/03/06 12:52:39;;;;;;;;;;;23.30;38.50;;;;;;5074674;28;19924;-51
2022/03/06 12:55:07;;;;;;;;;;;23.30;38.50;;;;;;5068501;28;19991;-46
2022/03/06 12:57:37;;;;;;;;;;;23.30;38.40;;;;;;5055284;28;19953;-48
2022/03/06 13:00:06;;;;;;;;;;;23.40;38.60;;;;;;5055071;28;19968;-51
2022/03/06 13:02:33;;;;;;;;;;;23.40;38.50;;;;;;5055827;28;19925;-47
2022/03/06 13:05:01;;;;;;;;;;;23.40;38.50;;;;;;5054901;28;19971;-47
2022/03/06 13:07:30;;;;;;;;;;;23.40;38.40;;;;;;5062611;28;20056;-53
2022/03/06 13:10:02;;;;;;;;;;;23.40;38.40;;;;;;5074331;28;20318;-48
2022/03/06 13:12:33;;;;;;;;;;;23.40;38.40;;;;;;5074882;28;19925;-45
2022/03/06 13:15:01;;;;;;;;;;;23.40;38.40;;;;;;5075856;28;19924;-44
2022/03/06 13:17:28;;;;;;;;;;;23.40;38.40;;;;;;5075058;28;19935;-45
2022/03/06 13:19:55;;;;;;;;;;;23.50;38.50;;;;;;5074484;28;19924;-47
2022/03/06 13:22:26;;;;;;;;;;;23.50;38.40;;;;;;5074101;28;20343;-47
2022/03/06 13:24:56;;;;;;;;;;;23.40;38.40;;;;;;5073777;28;20041;-43
2022/03/06 13:27:42;;;;;;;;;;;23.40;38.40;;;;;;5074891;28;19986;-45
2022/03/06 13:30:11;;;;;;;;;;;23.40;38.50;;;;;;5074542;28;20384;-44
2022/03/06 13:32:55;;;;;;;;;;;23.40;38.50;;;;;;5074416;28;19939;-45
2022/03/06 13:35:27;;;;;;;;;;;23.40;38.50;;;;;;5074301;28;19924;-44
2022/03/06 13:38:01;;;;;;;;;;;23.40;38.50;;;;;;5073563;28;20027;-45
2022/03/06 13:40:32;;;;;;;;;;;23.40;38.50;;;;;;5073859;28;19928;-45
2022/03/06 13:43:00;;;;;;;;;;;23.40;38.50;;;;;;5074527;28;19924;-45
2022/03/06 13:45:27;;;;;;;;;;;23.40;38.50;;;;;;5074724;28;20285;-46
2022/03/06 13:47:58;;;;;;;;;;;23.40;38.50;;;;;;5056789;28;19924;-45
2022/03/06 13:50:35;;;;;;;;;;;23.40;38.50;;;;;;5074089;28;19924;-51
2022/03/06 13:53:04;;;;;;;;;;;23.50;38.60;;;;;;5073173;28;19990;-42
2022/03/06 13:55:32;;;;;;;;;;;23.50;38.60;;;;;;5073604;28;20400;-47
2022/03/06 13:58:00;;;;;;;;;;;23.50;38.60;;;;;;5073949;28;20000;-46
2022/03/06 14:00:28;;;;;;;;;;;23.50;38.60;;;;;;5073909;28;19962;-43
2022/03/06 14:02:59;;;;;;;;;;;23.50;38.60;;;;;;5073349;28;20384;-41
2022/03/06 14:05:31;;;;;;;;;;;23.50;38.60;;;;;;5073806;28;19931;-44
2022/03/06 14:08:11;;;;;;;;;;;23.50;38.60;;;;;;5073302;28;19960;-42
2022/03/06 14:10:48;;;;;;;;;;;23.50;38.60;;;;;;5073127;28;19967;-45
2022/03/06 14:13:18;;;;;;;;;;;23.50;38.60;;;;;;5074014;28;19924;-46
2022/03/06 14:15:45;;;;;;;;;;;23.50;38.60;;;;;;5073596;28;20376;-43
2022/03/06 14:18:28;;;;;;;;;;;23.50;38.60;;;;;;5073923;28;20011;-45
2022/03/06 14:20:55;;;;;;;;;;;23.50;38.60;;;;;;5073151;28;19932;-44
2022/03/06 14:23:22;;;;;;;;;;;23.50;38.60;;;;;;5055497;28;19970;-43
2022/03/06 14:25:49;;;;;;;;;;;23.50;38.70;;;;;;5072936;28;19932;-44